< < Back
Terminal Aerodrome Forecast


Current Version              Previous Versions:   1  2  3  4  5  6  7  8  9  

Terminal Aerodrome Forecast

194
FTUS44 KBMX 042100 AAA
TAFMGM
TAF AMD
KMGM 042131Z 0422/0518 19010G18KT P6SM SCT025 OVC040
     FM050100 17007KT P6SM BKN025
     FM050400 20004KT 6SM BR OVC005
     FM051200 24007KT 4SM SHRA VCTS SCT005CB OVC007
     FM051500 33009KT 4SM -RA BR OVC007=

Latest METAR

459
SAUS80 KWBC 051600 RRA
MTRMGM
METAR KMGM 051553Z 31011G17KT 10SM BKN011 OVC030 06/03 A3018 RMK AO2
SLP218 T00610033


USA.gov is the U.S. government's official web portal to all federal, state and local government web resources and services.